createdAt,value
2019-05-22T00:01:39.308Z,12.70
2019-05-22T00:04:13.428Z,12.67
2019-05-22T00:06:43.058Z,12.70
2019-05-22T00:09:18.756Z,12.69
2019-05-22T00:11:48.264Z,12.75
2019-05-22T00:14:15.572Z,12.79
2019-05-22T00:16:46.265Z,12.86
2019-05-22T00:19:14.422Z,12.76
2019-05-22T00:21:41.713Z,12.73
2019-05-22T00:24:10.866Z,12.71
2019-05-22T00:26:39.843Z,12.60
2019-05-22T00:29:07.268Z,12.66
2019-05-22T00:31:34.542Z,12.58
2019-05-22T00:34:02.899Z,12.62
2019-05-22T00:36:31.914Z,12.59
2019-05-22T00:38:59.137Z,12.61
2019-05-22T00:41:28.123Z,12.61
2019-05-22T00:43:56.154Z,12.65
2019-05-22T00:46:24.507Z,12.62
2019-05-22T00:48:53.728Z,12.82
2019-05-22T00:51:36.908Z,12.98
2019-05-22T00:54:14.133Z,12.99
2019-05-22T00:56:50.906Z,12.94
2019-05-22T00:59:24.360Z,12.82
2019-05-22T01:01:52.786Z,12.83
2019-05-22T01:04:24.959Z,12.93
2019-05-22T01:06:53.983Z,13.10
2019-05-22T01:09:31.041Z,12.84
2019-05-22T01:11:59.898Z,12.94
2019-05-22T01:14:42.058Z,12.73
2019-05-22T01:16:56.421Z,12.72
2019-05-22T01:19:24.159Z,12.71
2019-05-22T01:21:51.712Z,12.65
2019-05-22T01:24:18.872Z,12.64
2019-05-22T01:26:49.371Z,12.68
2019-05-22T01:29:18.104Z,12.64
2019-05-22T01:31:50.073Z,12.65
2019-05-22T01:34:23.442Z,12.77
2019-05-22T01:36:54.759Z,12.72
2019-05-22T01:39:45.559Z,12.99
2019-05-22T01:42:19.426Z,13.10
2019-05-22T01:45:01.822Z,13.50
2019-05-22T01:47:33.045Z,13.70
2019-05-22T01:50:00.606Z,13.75
2019-05-22T01:52:27.838Z,13.64
2019-05-22T01:54:56.816Z,13.31
2019-05-22T01:57:25.802Z,13.40
2019-05-22T01:59:53.419Z,13.55
2019-05-22T02:02:23.451Z,13.38
2019-05-22T02:04:52.551Z,13.42
2019-05-22T02:07:21.003Z,13.57
2019-05-22T02:09:51.369Z,13.24
2019-05-22T02:12:31.241Z,13.37
2019-05-22T02:14:59.435Z,13.57
2019-05-22T02:17:30.982Z,13.75
2019-05-22T02:19:59.146Z,13.91
2019-05-22T02:22:26.433Z,14.03
2019-05-22T02:24:54.174Z,13.96
2019-05-22T02:27:23.409Z,14.03
2019-05-22T02:29:54.239Z,13.92
2019-05-22T02:32:23.172Z,13.83
2019-05-22T02:34:51.204Z,13.90
2019-05-22T02:37:19.330Z,14.06
2019-05-22T02:39:46.938Z,14.04
2019-05-22T02:42:20.056Z,13.89
2019-05-22T02:44:48.174Z,13.42
2019-05-22T02:47:20.742Z,13.48
2019-05-22T02:49:48.092Z,13.38
2019-05-22T02:52:15.891Z,13.16
2019-05-22T02:54:43.526Z,13.01
2019-05-22T02:57:12.328Z,13.11
2019-05-22T02:59:39.661Z,13.15
2019-05-22T03:02:06.907Z,13.10
2019-05-22T03:05:10.211Z,13.25
2019-05-22T03:07:39.604Z,13.20
2019-05-22T03:10:15.299Z,13.53
2019-05-22T03:12:44.522Z,13.99
2019-05-22T03:15:15.436Z,14.42
2019-05-22T03:17:44.281Z,14.70
2019-05-22T03:20:15.573Z,14.91
2019-05-22T03:22:58.174Z,15.03
2019-05-22T03:25:26.469Z,15.13
2019-05-22T03:27:53.887Z,15.28
2019-05-22T03:30:26.108Z,15.40
2019-05-22T03:32:55.680Z,15.48
2019-05-22T03:35:25.555Z,15.60
2019-05-22T03:37:53.710Z,15.63
2019-05-22T03:40:22.516Z,15.77
2019-05-22T03:42:53.192Z,15.78
2019-05-22T03:45:22.912Z,15.85
2019-05-22T03:47:51.116Z,15.90
2019-05-22T03:50:19.320Z,15.95
2019-05-22T03:52:46.506Z,16.04
2019-05-22T03:55:15.618Z,15.99
2019-05-22T03:57:43.959Z,15.86
2019-05-22T04:00:15.073Z,15.32
2019-05-22T04:02:43.581Z,14.78
2019-05-22T04:05:12.366Z,14.49
2019-05-22T04:07:40.387Z,14.16
2019-05-22T04:10:09.827Z,14.12
2019-05-22T04:12:37.211Z,13.74
2019-05-22T04:15:07.039Z,13.41
2019-05-22T04:17:35.644Z,13.07
2019-05-22T04:20:04.043Z,12.82
2019-05-22T04:22:31.411Z,12.80
2019-05-22T04:24:59.049Z,12.79
2019-05-22T04:27:26.051Z,12.61
2019-05-22T04:29:53.266Z,12.64
2019-05-22T04:32:28.856Z,12.75
2019-05-22T04:34:56.464Z,12.65
2019-05-22T04:37:24.280Z,12.50
2019-05-22T04:39:55.822Z,12.32
2019-05-22T04:42:24.131Z,12.36
2019-05-22T04:45:17.950Z,12.31
2019-05-22T04:47:56.895Z,12.35
2019-05-22T04:50:24.578Z,12.32
2019-05-22T04:52:52.525Z,12.43
2019-05-22T04:55:20.246Z,12.36
2019-05-22T04:57:48.879Z,12.27
2019-05-22T05:00:17.927Z,12.20
2019-05-22T05:02:45.065Z,12.17
2019-05-22T05:05:12.823Z,12.22
2019-05-22T05:07:40.926Z,12.13
2019-05-22T05:10:08.510Z,12.14
2019-05-22T05:12:35.776Z,12.15
2019-05-22T05:15:04.546Z,12.13
2019-05-22T05:17:31.703Z,12.18
2019-05-22T05:19:58.817Z,12.24
2019-05-22T05:22:40.559Z,12.27
2019-05-22T05:25:09.076Z,12.32
2019-05-22T05:27:36.095Z,12.42
2019-05-22T05:30:03.307Z,12.32
2019-05-22T05:32:31.116Z,12.35
2019-05-22T05:35:04.782Z,12.37
2019-05-22T05:37:31.970Z,12.50
2019-05-22T05:40:27.133Z,12.60
2019-05-22T05:42:54.220Z,12.88
2019-05-22T05:45:21.767Z,12.44
2019-05-22T05:47:49.594Z,12.54
2019-05-22T05:50:19.540Z,12.48
2019-05-22T05:52:48.639Z,12.52
2019-05-22T05:55:16.974Z,12.59
2019-05-22T05:58:22.868Z,12.71
2019-05-22T06:00:54.191Z,12.59
2019-05-22T06:03:33.300Z,12.95
2019-05-22T06:06:04.947Z,13.08
2019-05-22T06:08:33.042Z,12.87
2019-05-22T06:11:44.629Z,12.98
2019-05-22T06:14:23.371Z,13.09
2019-05-22T06:17:37.759Z,13.02
2019-05-22T06:20:11.690Z,13.04
2019-05-22T06:22:41.611Z,13.03
2019-05-22T06:25:09.811Z,13.01
2019-05-22T06:27:52.258Z,13.13
2019-05-22T06:30:40.633Z,13.11
2019-05-22T06:33:43.486Z,13.29
2019-05-22T06:36:18.578Z,13.63
2019-05-22T06:38:52.636Z,13.64
2019-05-22T06:41:23.780Z,13.44
2019-05-22T06:44:35.272Z,13.91
2019-05-22T06:47:04.452Z,13.67
2019-05-22T06:49:52.650Z,13.27
2019-05-22T06:52:20.242Z,13.57
2019-05-22T06:54:48.682Z,13.88
2019-05-22T06:57:19.649Z,13.76
2019-05-22T06:59:49.246Z,14.23
2019-05-22T07:02:18.711Z,13.68
2019-05-22T07:04:48.324Z,13.73
2019-05-22T07:07:16.645Z,14.25
2019-05-22T07:09:44.902Z,14.38
2019-05-22T07:12:14.891Z,14.39
2019-05-22T07:15:13.129Z,14.06
2019-05-22T07:17:41.253Z,14.24
2019-05-22T07:20:12.455Z,14.14
2019-05-22T07:22:39.413Z,14.10
2019-05-22T07:25:08.835Z,14.41
2019-05-22T07:27:39.195Z,14.17
2019-05-22T07:30:08.151Z,15.19
2019-05-22T07:32:42.478Z,14.36
2019-05-22T07:35:14.732Z,14.22
2019-05-22T07:37:45.928Z,14.14
2019-05-22T07:40:15.078Z,13.92
2019-05-22T07:42:42.521Z,13.98
2019-05-22T07:45:10.174Z,13.92
2019-05-22T07:47:37.412Z,13.88
2019-05-22T07:50:05.134Z,14.40
2019-05-22T07:52:32.413Z,14.39
2019-05-22T07:55:01.290Z,14.27
2019-05-22T07:57:29.448Z,14.80
2019-05-22T07:59:56.615Z,15.54
2019-05-22T08:02:26.140Z,15.39
2019-05-22T08:04:53.445Z,15.67
2019-05-22T08:07:26.174Z,15.65
2019-05-22T08:09:53.656Z,16.14
2019-05-22T08:12:21.001Z,15.03
2019-05-22T08:14:48.504Z,14.90
2019-05-22T08:17:16.845Z,14.39
2019-05-22T08:19:44.417Z,14.01
2019-05-22T08:22:12.577Z,13.93
2019-05-22T08:24:40.665Z,14.13
2019-05-22T08:27:07.957Z,13.74
2019-05-22T08:29:35.527Z,13.82
2019-05-22T08:32:03.524Z,13.90
2019-05-22T08:34:31.037Z,13.78
2019-05-22T08:37:01.024Z,13.81
2019-05-22T08:39:28.717Z,14.02
2019-05-22T08:41:55.958Z,13.75
2019-05-22T08:44:23.867Z,13.61
2019-05-22T08:46:52.150Z,13.82
2019-05-22T08:49:19.514Z,13.47
2019-05-22T08:51:48.091Z,13.74
2019-05-22T08:54:15.654Z,13.91
2019-05-22T08:56:46.990Z,14.30
2019-05-22T08:59:19.567Z,13.98
2019-05-22T09:01:43.587Z,14.30
2019-05-22T09:04:11.104Z,14.45
2019-05-22T09:06:38.092Z,14.57
2019-05-22T09:09:06.268Z,13.69
2019-05-22T09:11:33.366Z,13.82
2019-05-22T09:14:00.633Z,13.59
2019-05-22T09:16:27.603Z,13.82
2019-05-22T09:18:57.802Z,14.05
2019-05-22T09:21:24.803Z,14.32
2019-05-22T09:23:53.352Z,14.19
2019-05-22T09:26:22.617Z,14.88
2019-05-22T09:28:49.600Z,14.31
2019-05-22T09:31:17.751Z,14.16
2019-05-22T09:33:45.970Z,14.14
2019-05-22T09:36:14.378Z,14.14
2019-05-22T09:38:41.452Z,13.68
2019-05-22T09:41:08.705Z,13.55
2019-05-22T09:43:35.851Z,13.30
2019-05-22T09:46:04.644Z,13.42
2019-05-22T09:48:33.583Z,13.33
2019-05-22T09:51:00.683Z,13.48
2019-05-22T09:53:27.845Z,13.65
2019-05-22T09:55:55.232Z,14.13
2019-05-22T09:58:22.925Z,14.34
2019-05-22T10:00:49.978Z,13.79
2019-05-22T10:03:17.058Z,13.73
2019-05-22T10:05:47.747Z,13.59
2019-05-22T10:08:15.653Z,14.17
2019-05-22T10:10:43.015Z,14.42
2019-05-22T10:13:10.117Z,14.41
2019-05-22T10:15:38.558Z,14.52
2019-05-22T10:18:06.036Z,14.73
2019-05-22T10:20:56.574Z,14.56
2019-05-22T10:23:23.634Z,14.51
2019-05-22T10:25:51.275Z,14.91
2019-05-22T10:28:18.665Z,15.81
2019-05-22T10:30:46.849Z,15.41
2019-05-22T10:33:16.262Z,15.69
2019-05-22T10:35:43.607Z,16.00
2019-05-22T10:38:11.082Z,15.12
2019-05-22T10:40:38.319Z,15.81
2019-05-22T10:43:05.731Z,15.74
2019-05-22T10:45:33.124Z,15.79
2019-05-22T10:48:01.182Z,14.86
2019-05-22T10:50:31.101Z,15.44
2019-05-22T10:53:01.018Z,15.58
2019-05-22T10:55:29.047Z,17.23
2019-05-22T10:57:58.811Z,16.43
2019-05-22T11:00:29.417Z,17.79
2019-05-22T11:02:57.590Z,17.82
2019-05-22T11:05:26.055Z,18.05
2019-05-22T11:07:53.111Z,16.54
2019-05-22T11:10:23.646Z,16.10
2019-05-22T11:12:51.145Z,16.74
2019-05-22T11:15:18.828Z,16.51
2019-05-22T11:17:46.596Z,16.86
2019-05-22T11:20:32.763Z,16.93
2019-05-22T11:23:11.438Z,17.54
2019-05-22T11:25:48.688Z,19.59
2019-05-22T11:28:19.232Z,19.95
2019-05-22T11:30:46.205Z,17.97
2019-05-22T11:33:13.970Z,18.44
2019-05-22T11:35:40.959Z,19.66
2019-05-22T11:38:10.462Z,19.21
2019-05-22T11:40:53.645Z,18.19
2019-05-22T11:43:26.091Z,18.54
2019-05-22T11:45:53.085Z,16.31
2019-05-22T11:48:27.738Z,16.64
2019-05-22T11:50:55.957Z,17.35
2019-05-22T11:53:23.521Z,18.61
2019-05-22T11:55:52.693Z,18.29
2019-05-22T11:58:19.791Z,19.23
2019-05-22T12:00:56.206Z,20.94
2019-05-22T12:03:23.979Z,19.96
2019-05-22T12:05:55.759Z,18.66
2019-05-22T12:08:27.328Z,17.84
2019-05-22T12:10:56.701Z,17.82
2019-05-22T12:13:25.200Z,17.25
2019-05-22T12:15:58.863Z,18.39
2019-05-22T12:18:32.253Z,20.40
2019-05-22T12:21:01.609Z,21.15
2019-05-22T12:23:29.614Z,22.19
2019-05-22T12:25:56.706Z,20.65
2019-05-22T12:28:26.495Z,20.36
2019-05-22T12:30:54.589Z,18.44
2019-05-22T12:33:22.192Z,17.71
2019-05-22T12:35:49.897Z,20.11
2019-05-22T12:38:17.267Z,23.57
2019-05-22T12:40:44.347Z,21.17
2019-05-22T12:43:11.414Z,21.73
2019-05-22T12:46:05.640Z,22.96
2019-05-22T12:48:36.822Z,23.88
2019-05-22T12:51:11.935Z,26.09
2019-05-22T12:56:10.454Z,20.76
2019-05-22T12:58:40.412Z,21.19
2019-05-22T13:01:17.987Z,21.08
2019-05-22T13:03:48.723Z,21.46
2019-05-22T13:06:18.230Z,21.81
2019-05-22T13:08:45.624Z,22.11
2019-05-22T13:11:20.161Z,29.10
2019-05-22T13:13:49.463Z,27.56
2019-05-22T13:16:16.994Z,27.58
2019-05-22T13:18:53.642Z,25.69
2019-05-22T13:21:29.448Z,27.19
2019-05-22T13:23:59.638Z,27.88
2019-05-22T13:26:29.263Z,29.66
2019-05-22T13:28:57.011Z,28.46
2019-05-22T13:31:29.372Z,23.58
2019-05-22T13:33:57.680Z,22.54
2019-05-22T13:36:31.616Z,24.28
2019-05-22T13:38:59.234Z,21.86
2019-05-22T13:41:26.700Z,20.92
2019-05-22T13:43:54.078Z,21.04
2019-05-22T13:46:21.744Z,23.59
2019-05-22T13:48:49.022Z,25.71
2019-05-22T13:51:16.282Z,29.03
2019-05-22T13:53:48.798Z,22.62
2019-05-22T13:56:17.361Z,23.64
2019-05-22T13:58:44.883Z,26.44
2019-05-22T14:01:11.946Z,29.63
2019-05-22T14:03:41.217Z,31.78
2019-05-22T14:06:08.558Z,28.87
2019-05-22T14:08:35.913Z,26.58
2019-05-22T14:11:03.994Z,24.57
2019-05-22T14:13:31.283Z,24.62
2019-05-22T14:16:01.398Z,27.53
2019-05-22T14:18:29.349Z,29.53
2019-05-22T14:20:56.524Z,29.47
2019-05-22T14:23:23.716Z,29.01
2019-05-22T14:25:51.611Z,29.65
2019-05-22T14:28:20.758Z,26.52
2019-05-22T14:30:48.531Z,27.78
2019-05-22T14:33:16.079Z,25.90
2019-05-22T14:35:48.973Z,29.64
2019-05-22T14:38:15.091Z,30.28
2019-05-22T14:40:42.811Z,32.70
2019-05-22T14:43:10.596Z,33.27
2019-05-22T14:45:38.287Z,27.49
2019-05-22T14:48:05.536Z,24.39
2019-05-22T14:50:33.357Z,22.30
2019-05-22T14:53:00.330Z,21.63
2019-05-22T14:55:29.025Z,23.68
2019-05-22T14:57:56.876Z,22.56
2019-05-22T15:00:27.251Z,20.41
2019-05-22T15:02:58.525Z,20.76
2019-05-22T15:05:24.265Z,26.40
2019-05-22T15:07:57.675Z,26.74
2019-05-22T15:10:26.165Z,24.69
2019-05-22T15:13:08.334Z,24.06
2019-05-22T15:15:40.517Z,24.51
2019-05-22T15:18:07.175Z,22.58
2019-05-22T15:21:01.581Z,25.17
2019-05-22T15:23:30.421Z,24.66
2019-05-22T15:26:01.589Z,23.96
2019-05-22T15:28:29.370Z,21.63
2019-05-22T15:30:56.538Z,21.60
2019-05-22T15:33:29.858Z,23.36
2019-05-22T15:35:57.109Z,25.60
2019-05-22T15:38:26.181Z,24.82
2019-05-22T15:40:55.058Z,26.04
2019-05-22T15:43:24.079Z,27.61
2019-05-22T15:45:54.761Z,28.39
2019-05-22T15:48:29.237Z,24.39
2019-05-22T15:50:59.406Z,26.09
2019-05-22T15:53:34.170Z,27.22
2019-05-22T15:56:03.841Z,25.61
2019-05-22T15:58:33.318Z,23.72
2019-05-22T16:01:01.341Z,23.32
2019-05-22T16:03:29.475Z,23.65
2019-05-22T16:05:58.316Z,21.15
2019-05-22T16:08:31.216Z,22.06
2019-05-22T16:11:19.374Z,24.17
2019-05-22T16:13:47.901Z,23.99
2019-05-22T16:16:18.186Z,22.29
2019-05-22T16:21:13.855Z,25.23
2019-05-22T16:23:44.544Z,21.58
2019-05-22T16:26:13.314Z,23.01
2019-05-22T16:28:43.844Z,24.38
2019-05-22T16:31:16.406Z,25.26
2019-05-22T16:33:52.787Z,25.64
2019-05-22T16:36:21.199Z,23.06
2019-05-22T16:38:50.275Z,22.47
2019-05-22T16:41:18.645Z,23.18
2019-05-22T16:43:49.619Z,23.95
2019-05-22T16:46:18.347Z,23.94
2019-05-22T16:48:47.407Z,21.28
2019-05-22T16:51:19.714Z,20.89
2019-05-22T16:53:56.176Z,22.20
2019-05-22T16:56:24.823Z,22.24
2019-05-22T16:58:52.891Z,21.73
2019-05-22T17:01:21.436Z,22.38
2019-05-22T17:03:53.197Z,22.92
2019-05-22T17:06:22.899Z,22.11
2019-05-22T17:08:50.429Z,21.70
2019-05-22T17:11:18.197Z,20.82
2019-05-22T17:13:46.618Z,21.22
2019-05-22T17:16:15.991Z,22.20
2019-05-22T17:18:48.116Z,23.17
2019-05-22T17:21:16.286Z,21.52
2019-05-22T17:23:44.172Z,21.25
2019-05-22T17:26:12.379Z,20.96
2019-05-22T17:28:40.279Z,20.91
2019-05-22T17:31:08.047Z,21.56
2019-05-22T17:33:35.307Z,22.35
2019-05-22T17:36:05.541Z,21.76
2019-05-22T17:38:32.787Z,21.19
2019-05-22T17:41:00.685Z,20.79
2019-05-22T17:43:30.676Z,20.94
2019-05-22T17:45:57.895Z,20.70
2019-05-22T17:48:28.373Z,21.52
2019-05-22T17:50:56.040Z,21.72
2019-05-22T17:53:24.290Z,22.89
2019-05-22T17:55:54.488Z,23.63
2019-05-22T17:58:30.105Z,23.07
2019-05-22T18:00:58.227Z,21.34
2019-05-22T18:03:25.347Z,21.73
2019-05-22T18:05:55.762Z,22.16
2019-05-22T18:08:33.925Z,22.64
2019-05-22T18:11:05.893Z,21.05
2019-05-22T18:13:38.147Z,21.37
2019-05-22T18:16:05.602Z,21.33
2019-05-22T18:18:34.955Z,20.17
2019-05-22T18:21:09.974Z,19.39
2019-05-22T18:23:39.364Z,18.98
2019-05-22T18:26:06.965Z,18.57
2019-05-22T18:28:34.403Z,18.65
2019-05-22T18:31:06.989Z,19.35
2019-05-22T18:33:40.090Z,19.47
2019-05-22T18:36:28.659Z,19.74
2019-05-22T18:39:05.283Z,19.65
2019-05-22T18:41:32.846Z,19.33
2019-05-22T18:44:00.561Z,18.92
2019-05-22T18:46:28.297Z,18.96
2019-05-22T18:48:56.076Z,18.52
2019-05-22T18:51:24.121Z,18.13
2019-05-22T18:53:53.467Z,17.41
2019-05-22T18:56:26.083Z,16.87
2019-05-22T18:58:55.610Z,16.46
2019-05-22T19:01:22.828Z,16.23
2019-05-22T19:03:50.183Z,16.09
2019-05-22T19:06:29.680Z,15.93
2019-05-22T19:08:49.805Z,15.81
2019-05-22T19:11:17.252Z,15.89
2019-05-22T19:13:54.884Z,16.00
2019-05-22T19:16:31.984Z,15.98
2019-05-22T19:19:01.851Z,15.99
2019-05-22T19:21:30.469Z,15.86
2019-05-22T19:24:02.939Z,15.86
2019-05-22T19:26:30.164Z,15.93
2019-05-22T19:28:57.692Z,16.05
2019-05-22T19:31:28.064Z,16.00
2019-05-22T19:33:55.385Z,15.87
2019-05-22T19:36:29.766Z,15.78
2019-05-22T19:38:57.209Z,15.72
2019-05-22T19:41:30.364Z,15.66
2019-05-22T19:44:06.726Z,15.56
2019-05-22T19:46:42.450Z,15.38
2019-05-22T19:49:12.867Z,15.21
2019-05-22T19:51:44.545Z,15.09
2019-05-22T19:54:12.126Z,14.93
2019-05-22T19:56:49.349Z,14.71
2019-05-22T19:59:17.357Z,14.56
2019-05-22T20:01:55.743Z,14.52
2019-05-22T20:04:23.686Z,14.55
2019-05-22T20:06:50.986Z,14.60
2019-05-22T20:09:20.737Z,14.56
2019-05-22T20:11:48.501Z,14.43
2019-05-22T20:14:18.737Z,14.23
2019-05-22T20:16:46.228Z,14.11
2019-05-22T20:19:20.370Z,13.99
2019-05-22T20:21:50.794Z,13.87
2019-05-22T20:24:19.769Z,13.75
2019-05-22T20:26:49.310Z,13.62
2019-05-22T20:29:18.542Z,13.51
2019-05-22T20:31:48.534Z,13.51
2019-05-22T20:34:27.007Z,13.48
2019-05-22T20:36:55.902Z,13.44
2019-05-22T20:39:25.037Z,13.45
2019-05-22T20:41:59.036Z,13.39
2019-05-22T20:44:38.063Z,13.30
2019-05-22T20:47:10.841Z,13.14
2019-05-22T20:49:43.507Z,13.07
2019-05-22T20:52:13.809Z,12.79
2019-05-22T20:54:47.985Z,12.68
2019-05-22T20:57:20.254Z,12.49
2019-05-22T20:59:50.660Z,12.24
2019-05-22T21:02:23.390Z,12.14
2019-05-22T21:04:56.056Z,12.16
2019-05-22T21:07:33.350Z,12.14
2019-05-22T21:10:10.143Z,12.16
2019-05-22T21:12:48.423Z,12.15
2019-05-22T21:15:15.811Z,12.11
2019-05-22T21:17:43.184Z,12.01
2019-05-22T21:20:15.173Z,12.03
2019-05-22T21:22:44.032Z,11.96
2019-05-22T21:25:11.358Z,11.96
2019-05-22T21:27:38.759Z,11.99
2019-05-22T21:30:09.507Z,11.81
2019-05-22T21:32:37.786Z,11.82
2019-05-22T21:35:13.696Z,11.83
2019-05-22T21:37:41.116Z,11.76
2019-05-22T21:40:09.024Z,11.70
2019-05-22T21:42:38.756Z,11.69
2019-05-22T21:45:08.823Z,11.69
2019-05-22T21:47:45.689Z,11.69
2019-05-22T21:50:14.051Z,11.68
2019-05-22T21:52:45.981Z,11.70
2019-05-22T21:55:15.333Z,11.66
2019-05-22T21:57:46.201Z,11.63
2019-05-22T22:00:21.535Z,11.59
2019-05-22T22:02:51.836Z,11.57
2019-05-22T22:05:19.263Z,11.51
2019-05-22T22:07:46.764Z,11.46
2019-05-22T22:10:15.304Z,11.36
2019-05-22T22:12:43.246Z,11.35
2019-05-22T22:15:12.604Z,11.35
2019-05-22T22:17:41.483Z,11.32
2019-05-22T22:20:09.671Z,11.27
2019-05-22T22:22:37.688Z,11.22
2019-05-22T22:25:09.593Z,11.24
2019-05-22T22:27:37.918Z,11.17
2019-05-22T22:30:10.619Z,11.10
2019-05-22T22:32:39.040Z,10.99
2019-05-22T22:35:11.182Z,10.92
2019-05-22T22:37:38.747Z,10.89
2019-05-22T22:40:08.064Z,10.89
2019-05-22T22:42:37.353Z,10.72
2019-05-22T22:45:10.707Z,10.58
2019-05-22T22:47:41.983Z,10.54
2019-05-22T22:50:12.366Z,10.47
2019-05-22T22:52:42.351Z,10.57
2019-05-22T22:55:12.502Z,10.61
2019-05-22T22:57:40.272Z,10.63
2019-05-22T23:00:11.415Z,10.56
2019-05-22T23:02:40.935Z,10.54
2019-05-22T23:05:10.607Z,10.53
2019-05-22T23:07:41.001Z,10.45
2019-05-22T23:10:10.400Z,10.42
2019-05-22T23:12:38.953Z,10.26
2019-05-22T23:15:10.125Z,10.29
2019-05-22T23:17:40.093Z,10.34
2019-05-22T23:20:13.103Z,10.40
2019-05-22T23:22:39.749Z,10.34
2019-05-22T23:25:09.438Z,10.35
2019-05-22T23:27:39.095Z,10.40
2019-05-22T23:30:14.110Z,10.39
2019-05-22T23:32:46.289Z,10.34
2019-05-22T23:35:28.616Z,10.27
2019-05-22T23:38:21.192Z,10.31
2019-05-22T23:40:59.452Z,10.31
2019-05-22T23:43:33.022Z,10.27
2019-05-22T23:46:02.067Z,10.28
2019-05-22T23:48:30.240Z,10.31
2019-05-22T23:50:58.697Z,10.24
2019-05-22T23:53:27.536Z,10.25
2019-05-22T23:55:58.135Z,10.27
2019-05-22T23:58:27.706Z,10.25
